sensor_id;sensor_type;location;lat;lon;timestamp;P1;durP1;ratioP1;P2;durP2;ratioP2
49978;SDS011;35869;50.990;6.962;2023-07-13T00:02:48;5.35;;;1.15;;
49978;SDS011;35869;50.990;6.962;2023-07-13T00:07:49;3.73;;;1.33;;
49978;SDS011;35869;50.990;6.962;2023-07-13T00:12:50;2.28;;;1.00;;
49978;SDS011;35869;50.990;6.962;2023-07-13T00:17:51;4.93;;;1.43;;
49978;SDS011;35869;50.990;6.962;2023-07-13T00:22:52;3.55;;;1.20;;
49978;SDS011;35869;50.990;6.962;2023-07-13T00:27:53;2.15;;;1.02;;
49978;SDS011;35869;50.990;6.962;2023-07-13T00:32:53;10.02;;;1.17;;
49978;SDS011;35869;50.990;6.962;2023-07-13T00:37:53;3.83;;;1.50;;
49978;SDS011;35869;50.990;6.962;2023-07-13T00:42:56;5.53;;;1.33;;
49978;SDS011;35869;50.990;6.962;2023-07-13T00:47:57;6.40;;;1.48;;
49978;SDS011;35869;50.990;6.962;2023-07-13T00:52:58;3.60;;;1.10;;
49978;SDS011;35869;50.990;6.962;2023-07-13T00:57:58;3.97;;;1.27;;
49978;SDS011;35869;50.990;6.962;2023-07-13T01:02:59;2.30;;;1.23;;
49978;SDS011;35869;50.990;6.962;2023-07-13T01:07:59;3.50;;;0.97;;
49978;SDS011;35869;50.990;6.962;2023-07-13T01:13:01;3.15;;;0.90;;
49978;SDS011;35869;50.990;6.962;2023-07-13T01:18:01;3.50;;;1.20;;
49978;SDS011;35869;50.990;6.962;2023-07-13T01:23:06;1.70;;;1.10;;
49978;SDS011;35869;50.990;6.962;2023-07-13T01:28:08;4.25;;;1.60;;
49978;SDS011;35869;50.990;6.962;2023-07-13T01:33:09;2.87;;;1.30;;
49978;SDS011;35869;50.990;6.962;2023-07-13T01:38:09;2.55;;;1.23;;
49978;SDS011;35869;50.990;6.962;2023-07-13T01:43:10;2.67;;;1.33;;
49978;SDS011;35869;50.990;6.962;2023-07-13T01:48:11;4.07;;;1.52;;
49978;SDS011;35869;50.990;6.962;2023-07-13T01:53:11;7.57;;;1.52;;
49978;SDS011;35869;50.990;6.962;2023-07-13T01:58:12;5.00;;;0.97;;
49978;SDS011;35869;50.990;6.962;2023-07-13T02:03:12;3.77;;;1.30;;
49978;SDS011;35869;50.990;6.962;2023-07-13T02:08:12;5.75;;;1.55;;
49978;SDS011;35869;50.990;6.962;2023-07-13T02:13:12;5.90;;;1.37;;
49978;SDS011;35869;50.990;6.962;2023-07-13T02:18:13;5.10;;;1.10;;
49978;SDS011;35869;50.990;6.962;2023-07-13T02:23:13;4.00;;;1.43;;
49978;SDS011;35869;50.990;6.962;2023-07-13T02:28:13;3.67;;;0.83;;
49978;SDS011;35869;50.990;6.962;2023-07-13T02:33:13;3.33;;;1.30;;
49978;SDS011;35869;50.990;6.962;2023-07-13T02:38:13;2.37;;;1.43;;
49978;SDS011;35869;50.990;6.962;2023-07-13T02:43:14;2.53;;;1.10;;
49978;SDS011;35869;50.990;6.962;2023-07-13T02:48:14;4.00;;;1.30;;
49978;SDS011;35869;50.990;6.962;2023-07-13T02:53:14;2.85;;;1.08;;
49978;SDS011;35869;50.990;6.962;2023-07-13T02:58:14;4.17;;;2.03;;
49978;SDS011;35869;50.990;6.962;2023-07-13T03:03:14;3.72;;;1.40;;
49978;SDS011;35869;50.990;6.962;2023-07-13T03:08:15;2.33;;;1.63;;
49978;SDS011;35869;50.990;6.962;2023-07-13T03:18:15;6.65;;;1.48;;
49978;SDS011;35869;50.990;6.962;2023-07-13T03:23:16;4.53;;;1.45;;
49978;SDS011;35869;50.990;6.962;2023-07-13T03:28:16;6.30;;;1.50;;
49978;SDS011;35869;50.990;6.962;2023-07-13T03:33:16;2.38;;;1.30;;
49978;SDS011;35869;50.990;6.962;2023-07-13T03:38:16;2.95;;;1.40;;
49978;SDS011;35869;50.990;6.962;2023-07-13T03:43:17;6.27;;;1.50;;
49978;SDS011;35869;50.990;6.962;2023-07-13T03:48:17;4.57;;;1.40;;
49978;SDS011;35869;50.990;6.962;2023-07-13T03:53:17;2.43;;;1.30;;
49978;SDS011;35869;50.990;6.962;2023-07-13T04:03:29;2.80;;;1.10;;
49978;SDS011;35869;50.990;6.962;2023-07-13T04:13:31;3.57;;;1.37;;
49978;SDS011;35869;50.990;6.962;2023-07-13T04:23:31;3.58;;;1.40;;
49978;SDS011;35869;50.990;6.962;2023-07-13T04:28:31;3.15;;;1.58;;
49978;SDS011;35869;50.990;6.962;2023-07-13T04:38:32;4.32;;;1.70;;
49978;SDS011;35869;50.990;6.962;2023-07-13T04:48:33;5.50;;;1.50;;
49978;SDS011;35869;50.990;6.962;2023-07-13T04:58:34;4.90;;;1.65;;
49978;SDS011;35869;50.990;6.962;2023-07-13T05:03:35;5.32;;;1.55;;
49978;SDS011;35869;50.990;6.962;2023-07-13T05:08:35;5.15;;;1.80;;
49978;SDS011;35869;50.990;6.962;2023-07-13T05:13:35;3.40;;;1.60;;
49978;SDS011;35869;50.990;6.962;2023-07-13T05:18:36;7.47;;;1.92;;
49978;SDS011;35869;50.990;6.962;2023-07-13T05:28:37;6.97;;;1.73;;
49978;SDS011;35869;50.990;6.962;2023-07-13T05:33:38;3.17;;;1.45;;
49978;SDS011;35869;50.990;6.962;2023-07-13T05:43:39;8.23;;;2.50;;
49978;SDS011;35869;50.990;6.962;2023-07-13T05:48:39;3.13;;;1.50;;
49978;SDS011;35869;50.990;6.962;2023-07-13T05:53:39;5.25;;;1.75;;
49978;SDS011;35869;50.990;6.962;2023-07-13T05:58:39;3.97;;;1.80;;
49978;SDS011;35869;50.990;6.962;2023-07-13T06:03:40;3.80;;;1.90;;
49978;SDS011;35869;50.990;6.962;2023-07-13T06:08:40;7.78;;;1.38;;
49978;SDS011;35869;50.990;6.962;2023-07-13T06:13:40;5.00;;;1.98;;
49978;SDS011;35869;50.990;6.962;2023-07-13T06:18:40;8.32;;;1.98;;
49978;SDS011;35869;50.990;6.962;2023-07-13T06:28:41;6.13;;;2.13;;
49978;SDS011;35869;50.990;6.962;2023-07-13T06:38:43;5.33;;;1.90;;
49978;SDS011;35869;50.990;6.962;2023-07-13T06:43:43;6.00;;;2.10;;
49978;SDS011;35869;50.990;6.962;2023-07-13T06:48:43;5.73;;;2.27;;
49978;SDS011;35869;50.990;6.962;2023-07-13T06:53:43;5.47;;;2.33;;
49978;SDS011;35869;50.990;6.962;2023-07-13T06:58:44;5.00;;;2.03;;
49978;SDS011;35869;50.990;6.962;2023-07-13T07:03:44;6.28;;;2.08;;
49978;SDS011;35869;50.990;6.962;2023-07-13T07:08:44;4.45;;;2.00;;
49978;SDS011;35869;50.990;6.962;2023-07-13T07:13:45;6.32;;;1.95;;
49978;SDS011;35869;50.990;6.962;2023-07-13T07:18:45;9.77;;;2.60;;
49978;SDS011;35869;50.990;6.962;2023-07-13T07:23:45;8.40;;;2.25;;
49978;SDS011;35869;50.990;6.962;2023-07-13T07:28:46;5.77;;;1.70;;
49978;SDS011;35869;50.990;6.962;2023-07-13T07:33:46;5.97;;;2.20;;
49978;SDS011;35869;50.990;6.962;2023-07-13T07:38:46;8.23;;;2.70;;
49978;SDS011;35869;50.990;6.962;2023-07-13T07:43:46;14.17;;;2.87;;
49978;SDS011;35869;50.990;6.962;2023-07-13T07:48:46;6.97;;;2.40;;
49978;SDS011;35869;50.990;6.962;2023-07-13T07:53:47;5.87;;;2.27;;
49978;SDS011;35869;50.990;6.962;2023-07-13T07:58:47;5.75;;;1.77;;
49978;SDS011;35869;50.990;6.962;2023-07-13T08:03:47;5.50;;;2.07;;
49978;SDS011;35869;50.990;6.962;2023-07-13T08:08:48;11.47;;;2.40;;
49978;SDS011;35869;50.990;6.962;2023-07-13T08:13:49;10.40;;;2.40;;
49978;SDS011;35869;50.990;6.962;2023-07-13T08:18:49;4.93;;;2.17;;
49978;SDS011;35869;50.990;6.962;2023-07-13T08:23:50;5.95;;;2.05;;
49978;SDS011;35869;50.990;6.962;2023-07-13T08:28:50;6.75;;;2.30;;
49978;SDS011;35869;50.990;6.962;2023-07-13T08:33:50;5.72;;;2.17;;
49978;SDS011;35869;50.990;6.962;2023-07-13T08:38:50;6.63;;;2.38;;
49978;SDS011;35869;50.990;6.962;2023-07-13T08:43:52;6.88;;;2.30;;
49978;SDS011;35869;50.990;6.962;2023-07-13T08:53:59;6.35;;;2.10;;
49978;SDS011;35869;50.990;6.962;2023-07-13T08:59:16;6.75;;;2.50;;
49978;SDS011;35869;50.990;6.962;2023-07-13T09:04:19;6.07;;;2.10;;
49978;SDS011;35869;50.990;6.962;2023-07-13T10:28:33;4.82;;;1.50;;
49978;SDS011;35869;50.990;6.962;2023-07-13T10:33:36;6.32;;;1.75;;
49978;SDS011;35869;50.990;6.962;2023-07-13T10:38:37;5.35;;;1.58;;
49978;SDS011;35869;50.990;6.962;2023-07-13T10:43:45;3.20;;;1.60;;
49978;SDS011;35869;50.990;6.962;2023-07-13T10:48:51;6.40;;;1.70;;
49978;SDS011;35869;50.990;6.962;2023-07-13T10:54:17;5.03;;;1.77;;
49978;SDS011;35869;50.990;6.962;2023-07-13T15:35:47;2.78;;;1.17;;
49978;SDS011;35869;50.990;6.962;2023-07-13T15:40:48;5.43;;;1.58;;
49978;SDS011;35869;50.990;6.962;2023-07-13T15:45:50;6.30;;;1.30;;
49978;SDS011;35869;50.990;6.962;2023-07-13T15:50:51;1.58;;;1.10;;
49978;SDS011;35869;50.990;6.962;2023-07-13T15:55:52;6.88;;;1.40;;
49978;SDS011;35869;50.990;6.962;2023-07-13T16:00:53;5.20;;;1.65;;
49978;SDS011;35869;50.990;6.962;2023-07-13T16:05:53;7.35;;;2.17;;
49978;SDS011;35869;50.990;6.962;2023-07-13T16:10:53;5.70;;;1.80;;
49978;SDS011;35869;50.990;6.962;2023-07-13T16:15:55;4.35;;;1.90;;
49978;SDS011;35869;50.990;6.962;2023-07-13T16:20:55;4.60;;;1.65;;
49978;SDS011;35869;50.990;6.962;2023-07-13T16:25:55;4.00;;;1.60;;
49978;SDS011;35869;50.990;6.962;2023-07-13T16:30:56;6.57;;;1.83;;
49978;SDS011;35869;50.990;6.962;2023-07-13T16:35:56;3.22;;;1.92;;
49978;SDS011;35869;50.990;6.962;2023-07-13T16:40:56;5.75;;;1.80;;
49978;SDS011;35869;50.990;6.962;2023-07-13T16:45:57;4.88;;;1.50;;
49978;SDS011;35869;50.990;6.962;2023-07-13T16:50:59;4.03;;;1.88;;
49978;SDS011;35869;50.990;6.962;2023-07-13T16:56:00;3.75;;;1.50;;
49978;SDS011;35869;50.990;6.962;2023-07-13T17:01:01;3.47;;;1.30;;
49978;SDS011;35869;50.990;6.962;2023-07-13T17:06:10;5.68;;;1.70;;
49978;SDS011;35869;50.990;6.962;2023-07-13T17:11:20;3.53;;;1.40;;
49978;SDS011;35869;50.990;6.962;2023-07-13T17:16:20;3.17;;;1.33;;
49978;SDS011;35869;50.990;6.962;2023-07-13T17:21:21;4.07;;;1.30;;
49978;SDS011;35869;50.990;6.962;2023-07-13T17:26:21;3.47;;;1.10;;
49978;SDS011;35869;50.990;6.962;2023-07-13T17:31:22;3.83;;;1.25;;
49978;SDS011;35869;50.990;6.962;2023-07-13T17:36:22;2.35;;;1.30;;
49978;SDS011;35869;50.990;6.962;2023-07-13T17:41:22;4.03;;;2.00;;
49978;SDS011;35869;50.990;6.962;2023-07-13T17:46:24;4.93;;;2.10;;
49978;SDS011;35869;50.990;6.962;2023-07-13T17:51:28;4.53;;;1.25;;
49978;SDS011;35869;50.990;6.962;2023-07-13T17:56:28;1.98;;;1.20;;
49978;SDS011;35869;50.990;6.962;2023-07-13T18:01:28;3.30;;;1.23;;
49978;SDS011;35869;50.990;6.962;2023-07-13T18:06:33;3.85;;;1.48;;
49978;SDS011;35869;50.990;6.962;2023-07-13T18:11:35;4.13;;;1.58;;
49978;SDS011;35869;50.990;6.962;2023-07-13T18:16:35;3.90;;;1.33;;
49978;SDS011;35869;50.990;6.962;2023-07-13T18:21:36;5.28;;;1.13;;
49978;SDS011;35869;50.990;6.962;2023-07-13T18:26:36;6.13;;;1.67;;
49978;SDS011;35869;50.990;6.962;2023-07-13T18:31:37;4.38;;;1.70;;
49978;SDS011;35869;50.990;6.962;2023-07-13T18:36:37;5.10;;;1.40;;
49978;SDS011;35869;50.990;6.962;2023-07-13T18:41:37;5.70;;;1.17;;
49978;SDS011;35869;50.990;6.962;2023-07-13T18:46:38;5.32;;;1.52;;
49978;SDS011;35869;50.990;6.962;2023-07-13T18:51:38;4.40;;;1.40;;
49978;SDS011;35869;50.990;6.962;2023-07-13T18:56:39;5.50;;;1.60;;
49978;SDS011;35869;50.990;6.962;2023-07-13T19:01:39;3.05;;;1.45;;
49978;SDS011;35869;50.990;6.962;2023-07-13T19:06:40;3.93;;;1.30;;
49978;SDS011;35869;50.990;6.962;2023-07-13T19:11:40;1.42;;;1.17;;
49978;SDS011;35869;50.990;6.962;2023-07-13T19:16:40;1.95;;;1.00;;
49978;SDS011;35869;50.990;6.962;2023-07-13T19:21:40;3.73;;;1.60;;
49978;SDS011;35869;50.990;6.962;2023-07-13T19:26:42;2.03;;;1.30;;
49978;SDS011;35869;50.990;6.962;2023-07-13T19:31:42;1.65;;;1.27;;
49978;SDS011;35869;50.990;6.962;2023-07-13T19:36:42;3.78;;;1.90;;
49978;SDS011;35869;50.990;6.962;2023-07-13T19:41:43;4.80;;;1.40;;
49978;SDS011;35869;50.990;6.962;2023-07-13T19:46:43;2.83;;;1.40;;
49978;SDS011;35869;50.990;6.962;2023-07-13T19:51:44;4.70;;;1.38;;
49978;SDS011;35869;50.990;6.962;2023-07-13T19:56:44;1.53;;;1.20;;
49978;SDS011;35869;50.990;6.962;2023-07-13T20:01:45;2.83;;;1.33;;
49978;SDS011;35869;50.990;6.962;2023-07-13T20:06:45;2.53;;;1.25;;
49978;SDS011;35869;50.990;6.962;2023-07-13T20:11:46;2.43;;;1.23;;
49978;SDS011;35869;50.990;6.962;2023-07-13T20:16:47;6.55;;;1.55;;
49978;SDS011;35869;50.990;6.962;2023-07-13T20:21:50;3.03;;;1.13;;
49978;SDS011;35869;50.990;6.962;2023-07-13T20:26:50;3.08;;;1.30;;
49978;SDS011;35869;50.990;6.962;2023-07-13T20:31:51;2.83;;;1.20;;
49978;SDS011;35869;50.990;6.962;2023-07-13T20:36:51;3.65;;;1.30;;
49978;SDS011;35869;50.990;6.962;2023-07-13T20:41:52;4.18;;;1.52;;
49978;SDS011;35869;50.990;6.962;2023-07-13T20:46:53;7.53;;;1.77;;
49978;SDS011;35869;50.990;6.962;2023-07-13T20:51:53;2.40;;;1.50;;
49978;SDS011;35869;50.990;6.962;2023-07-13T20:56:53;2.35;;;1.10;;
49978;SDS011;35869;50.990;6.962;2023-07-13T21:01:53;7.20;;;1.63;;
49978;SDS011;35869;50.990;6.962;2023-07-13T21:06:53;3.35;;;1.50;;
49978;SDS011;35869;50.990;6.962;2023-07-13T21:11:54;2.83;;;1.70;;
49978;SDS011;35869;50.990;6.962;2023-07-13T21:16:54;4.07;;;1.48;;
49978;SDS011;35869;50.990;6.962;2023-07-13T21:21:55;4.30;;;1.50;;
49978;SDS011;35869;50.990;6.962;2023-07-13T21:26:55;6.22;;;1.58;;
49978;SDS011;35869;50.990;6.962;2023-07-13T21:31:55;2.00;;;1.33;;
49978;SDS011;35869;50.990;6.962;2023-07-13T21:36:55;5.10;;;1.50;;
49978;SDS011;35869;50.990;6.962;2023-07-13T21:41:56;3.75;;;1.58;;
49978;SDS011;35869;50.990;6.962;2023-07-13T21:46:56;2.40;;;1.80;;
49978;SDS011;35869;50.990;6.962;2023-07-13T21:51:56;3.58;;;2.00;;
49978;SDS011;35869;50.990;6.962;2023-07-13T21:56:57;4.13;;;1.98;;
49978;SDS011;35869;50.990;6.962;2023-07-13T22:01:57;3.85;;;2.20;;
49978;SDS011;35869;50.990;6.962;2023-07-13T22:06:58;4.15;;;2.00;;
49978;SDS011;35869;50.990;6.962;2023-07-13T22:11:59;5.82;;;3.60;;
49978;SDS011;35869;50.990;6.962;2023-07-13T22:16:59;3.70;;;2.90;;
49978;SDS011;35869;50.990;6.962;2023-07-13T22:21:59;3.37;;;2.13;;
49978;SDS011;35869;50.990;6.962;2023-07-13T22:26:59;5.32;;;2.40;;
49978;SDS011;35869;50.990;6.962;2023-07-13T22:32:00;2.63;;;1.98;;
49978;SDS011;35869;50.990;6.962;2023-07-13T22:37:00;2.57;;;2.30;;
49978;SDS011;35869;50.990;6.962;2023-07-13T22:42:00;7.25;;;2.53;;
49978;SDS011;35869;50.990;6.962;2023-07-13T22:47:00;6.10;;;2.60;;
49978;SDS011;35869;50.990;6.962;2023-07-13T22:52:01;3.40;;;3.10;;
49978;SDS011;35869;50.990;6.962;2023-07-13T22:57:02;2.80;;;2.42;;
49978;SDS011;35869;50.990;6.962;2023-07-13T23:02:03;3.38;;;2.35;;
49978;SDS011;35869;50.990;6.962;2023-07-13T23:07:04;4.60;;;2.47;;
49978;SDS011;35869;50.990;6.962;2023-07-13T23:12:04;4.03;;;1.95;;
49978;SDS011;35869;50.990;6.962;2023-07-13T23:17:08;2.50;;;2.30;;
49978;SDS011;35869;50.990;6.962;2023-07-13T23:22:18;4.95;;;3.83;;
49978;SDS011;35869;50.990;6.962;2023-07-13T23:27:25;7.57;;;4.57;;
49978;SDS011;35869;50.990;6.962;2023-07-13T23:32:25;5.13;;;4.07;;
49978;SDS011;35869;50.990;6.962;2023-07-13T23:37:25;7.70;;;3.92;;
49978;SDS011;35869;50.990;6.962;2023-07-13T23:42:26;4.30;;;3.27;;
49978;SDS011;35869;50.990;6.962;2023-07-13T23:47:26;5.23;;;3.50;;
49978;SDS011;35869;50.990;6.962;2023-07-13T23:52:26;6.05;;;2.67;;
49978;SDS011;35869;50.990;6.962;2023-07-13T23:57:26;3.53;;;2.60;;
